KSGR/SGR METAR and TAF weather

Enter ICAO airport designator
Station Type Date Time Source
KSGR METAR 2024/05/28 20:53 UTC NOAA

KSGR 282053Z 07010KT 10SM CLR 23/21 A3002 RMK AO2 RAB1959E16 SLP167 P0002 60057 T02280206 58008


Station Type Date Time Source
KSGR Decoded METAR 2024/05/28 20:53 UTC NOAA

SUGARLAND REGIONAL AIRPORT, TX, United States (KSGR) 29-37N 095-39W
May 28, 2024 - 04:53 PM EDT / 2024.05.28 2053 UTC
Wind: from the ENE (070 degrees) at 12 MPH (10 KT):0
Visibility: 10 mile(s):0
Sky conditions: clear
Precipitation last hour: 0.02 inches
Temperature: 73.0 F (22.8 C)
Dew Point: 69.1 F (20.6 C)
Relative Humidity: 87%
Pressure (altimeter): 30.02 in. Hg (1016 hPa)
Pressure tendency: 0.02 inches (0.8 hPa) lower than three hours ago
ob: KSGR 282053Z 07010KT 10SM CLR 23/21 A3002 RMK AO2 RAB1959E16 SLP167 P0002 60057 T02280206 58008
cycle: 21

Station Type Date Time Source
KSGR TAF 2024/05/28 21:06 UTC NOAA